Time;durP1;ratioP1;P1;durP2;ratioP2;P2;SDS_P1;SDS_P2;PMS_P1;PMS_P2;Temp;Humidity;BMP_temperature;BMP_pressure;BME280_temperature;BME280_humidity;BME280_pressure;Samples;Min_cycle;Max_cycle;Signal;HPM_P1;HPM_P2
2023/11/24 00:00:41;;;;;;;7.38;1.02;;;7.90;99.90;;;;;;4993570;28;20404;-82
2023/11/24 00:03:09;;;;;;;10.75;1.40;;;7.80;99.90;;;;;;4995436;28;20498;-80
2023/11/24 00:05:35;;;;;;;9.55;0.98;;;7.70;99.90;;;;;;5006499;28;20037;-82
2023/11/24 00:08:04;;;;;;;7.97;0.68;;;7.70;99.90;;;;;;4977085;28;20076;-80
2023/11/24 00:10:30;;;;;;;7.13;0.65;;;7.70;99.90;;;;;;4994804;28;20484;-82
2023/11/24 00:12:57;;;;;;;6.68;0.50;;;7.60;99.90;;;;;;4993128;28;20033;-81
2023/11/24 00:15:24;;;;;;;8.05;0.60;;;7.60;99.90;;;;;;4990517;28;20041;-77
2023/11/24 00:17:50;;;;;;;2.40;0.52;;;7.60;99.90;;;;;;4994946;28;20049;-83
2023/11/24 00:20:17;;;;;;;6.20;0.50;;;7.50;99.90;;;;;;4992792;28;20045;-82
2023/11/24 00:22:43;;;;;;;6.13;0.60;;;7.40;99.90;;;;;;4975642;28;20037;-80
2023/11/24 00:25:09;;;;;;;5.70;1.35;;;7.30;99.90;;;;;;4975956;28;20512;-75
2023/11/24 00:27:37;;;;;;;6.38;0.65;;;7.30;99.90;;;;;;4994456;28;20030;-80
2023/11/24 00:30:07;;;;;;;6.28;0.60;;;7.20;99.90;;;;;;4975584;28;20037;-78
2023/11/24 00:32:34;;;;;;;6.90;0.63;;;7.20;99.90;;;;;;4993542;28;20037;-81
2023/11/24 00:35:01;;;;;;;6.43;0.82;;;7.30;99.90;;;;;;4995670;28;20368;-82
2023/11/24 00:37:28;;;;;;;4.47;0.50;;;7.30;99.90;;;;;;4996197;28;20025;-80
2023/11/24 00:39:55;;;;;;;5.15;0.68;;;7.40;99.90;;;;;;4958825;28;20377;-78
2023/11/24 00:42:23;;;;;;;6.70;0.60;;;7.40;99.90;;;;;;4979257;28;20322;-81
2023/11/24 00:44:49;;;;;;;8.70;0.80;;;7.40;99.90;;;;;;4994964;28;20034;-78
2023/11/24 00:47:17;;;;;;;9.88;1.35;;;7.40;99.90;;;;;;4993982;28;20385;-82
2023/11/24 00:49:43;;;;;;;9.70;0.80;;;7.40;99.90;;;;;;4957023;28;20384;-82
2023/11/24 00:52:10;;;;;;;4.82;0.90;;;7.40;99.90;;;;;;4990595;28;20042;-79
2023/11/24 00:54:37;;;;;;;7.32;1.20;;;7.50;99.90;;;;;;4972691;28;20034;-81
2023/11/24 00:57:05;;;;;;;7.95;0.82;;;7.40;99.90;;;;;;4993276;28;20032;-82
2023/11/24 00:59:31;;;;;;;12.90;0.90;;;7.40;99.90;;;;;;4979354;28;20392;-80
2023/11/24 01:01:57;;;;;;;13.05;0.82;;;7.40;99.90;;;;;;4979863;28;20188;-76
2023/11/24 01:04:25;;;;;;;7.88;1.23;;;7.40;99.90;;;;;;4995506;28;20108;-82
2023/11/24 01:06:51;;;;;;;12.90;1.63;;;7.40;99.90;;;;;;4961214;28;20038;-82
2023/11/24 01:09:17;;;;;;;6.97;0.70;;;7.40;99.90;;;;;;4992500;28;20065;-81
2023/11/24 01:11:43;;;;;;;10.63;0.80;;;7.30;99.90;;;;;;4996119;28;20072;-81
2023/11/24 01:14:10;;;;;;;16.63;1.33;;;7.30;99.90;;;;;;4992853;28;20712;-83
2023/11/24 01:16:36;;;;;;;9.00;0.77;;;7.30;99.90;;;;;;4976168;28;20404;-81
2023/11/24 01:19:03;;;;;;;8.90;1.10;;;7.20;99.90;;;;;;4990540;28;20038;-80
2023/11/24 01:21:30;;;;;;;16.98;1.73;;;7.20;99.90;;;;;;4976361;28;20041;-77
2023/11/24 01:24:02;;;;;;;10.68;1.00;;;7.20;99.90;;;;;;4991257;28;20037;-82
2023/11/24 01:26:29;;;;;;;12.15;1.48;;;7.10;99.90;;;;;;4977244;28;20061;-81
2023/11/24 01:28:55;;;;;;;15.10;1.40;;;7.10;99.90;;;;;;4961576;28;20424;-83
2023/11/24 01:31:22;;;;;;;15.10;1.40;;;7.10;99.90;;;;;;4973074;28;20030;-81
2023/11/24 01:33:49;;;;;;;10.55;1.45;;;7.10;99.90;;;;;;4992768;28;20021;-81
2023/11/24 01:36:15;;;;;;;15.43;1.67;;;7.10;99.90;;;;;;4964338;28;20500;-82
2023/11/24 01:38:41;;;;;;;18.70;2.08;;;7.10;99.90;;;;;;4974947;28;20034;-78
2023/11/24 01:41:08;;;;;;;16.85;1.20;;;7.00;99.90;;;;;;4978318;28;20025;-79
2023/11/24 01:43:35;;;;;;;9.57;0.90;;;7.00;99.90;;;;;;4980483;28;20030;-79
2023/11/24 01:46:01;;;;;;;9.68;0.90;;;7.00;99.90;;;;;;4994978;28;20042;-82
2023/11/24 01:48:29;;;;;;;12.20;1.20;;;7.00;99.90;;;;;;4963157;28;20486;-80
2023/11/24 01:50:56;;;;;;;7.97;1.75;;;6.90;99.90;;;;;;4977813;28;20037;-77
2023/11/24 01:53:22;;;;;;;6.95;1.08;;;6.90;99.90;;;;;;4975176;28;20038;-82
2023/11/24 01:55:49;;;;;;;8.23;1.02;;;6.90;99.90;;;;;;4996086;28;20026;-81
2023/11/24 01:58:16;;;;;;;12.30;0.90;;;6.90;99.90;;;;;;4995857;28;20216;-82
2023/11/24 02:00:44;;;;;;;12.77;0.90;;;6.90;99.90;;;;;;4973951;28;20254;-79
2023/11/24 02:03:10;;;;;;;13.20;1.48;;;6.80;99.90;;;;;;4995705;28;20048;-83
2023/11/24 02:05:37;;;;;;;20.35;1.50;;;6.80;99.90;;;;;;4979040;28;20107;-80
2023/11/24 02:08:05;;;;;;;8.02;0.80;;;6.80;99.90;;;;;;4976996;28;20034;-82
2023/11/24 02:10:32;;;;;;;19.33;1.90;;;6.80;99.90;;;;;;4997423;28;20037;-82
2023/11/24 02:12:59;;;;;;;10.13;1.77;;;6.80;99.90;;;;;;4997248;28;20366;-78
2023/11/24 02:15:25;;;;;;;28.50;3.33;;;6.80;99.90;;;;;;4996760;28;20499;-79
2023/11/24 02:17:52;;;;;;;16.17;1.42;;;6.80;99.90;;;;;;5011646;28;20037;-83
2023/11/24 02:20:20;;;;;;;12.10;2.05;;;6.90;99.90;;;;;;4979070;28;20038;-83
2023/11/24 02:22:47;;;;;;;20.45;2.35;;;6.90;99.90;;;;;;4978256;28;20472;-80
2023/11/24 02:25:14;;;;;;;10.70;1.80;;;6.90;99.90;;;;;;4979224;28;20045;-82
2023/11/24 02:27:40;;;;;;;17.85;1.60;;;6.90;99.90;;;;;;4977023;28;20477;-81
2023/11/24 02:30:09;;;;;;;13.65;2.13;;;6.90;99.90;;;;;;4995054;28;20026;-80
2023/11/24 02:32:35;;;;;;;19.25;2.17;;;6.90;99.90;;;;;;4978694;28;20042;-77
2023/11/24 02:35:02;;;;;;;13.63;1.67;;;6.90;99.90;;;;;;4996585;28;20042;-80
2023/11/24 02:37:30;;;;;;;15.18;1.75;;;6.80;99.90;;;;;;4996214;28;20034;-83
2023/11/24 02:39:56;;;;;;;15.10;1.08;;;6.80;99.90;;;;;;4994370;28;20034;-79
2023/11/24 02:42:23;;;;;;;11.43;1.48;;;6.80;99.90;;;;;;4978929;28;20040;-80
2023/11/24 02:44:49;;;;;;;16.95;1.58;;;6.80;99.90;;;;;;4979605;28;20035;-82
2023/11/24 02:47:15;;;;;;;14.73;1.42;;;6.80;99.90;;;;;;4964174;28;20037;-82
2023/11/24 02:49:42;;;;;;;10.35;1.20;;;6.80;99.90;;;;;;4957812;28;20037;-81
2023/11/24 02:52:09;;;;;;;14.70;1.25;;;6.80;99.90;;;;;;4993733;28;20038;-81
2023/11/24 02:54:35;;;;;;;16.05;1.70;;;6.80;99.90;;;;;;4977407;28;20572;-79
2023/11/24 02:57:03;;;;;;;12.95;1.30;;;6.80;99.90;;;;;;4990850;28;20030;-75
2023/11/24 02:59:29;;;;;;;16.73;2.17;;;6.90;99.90;;;;;;4979607;28;20041;-84
2023/11/24 03:01:56;;;;;;;12.70;1.23;;;6.90;99.90;;;;;;4962592;28;20037;-84
2023/11/24 03:04:22;;;;;;;15.68;1.38;;;6.90;99.90;;;;;;4957425;28;20397;-80
2023/11/24 03:06:48;;;;;;;11.55;1.50;;;6.90;99.90;;;;;;4988882;28;20052;-84
2023/11/24 03:09:16;;;;;;;17.50;1.00;;;6.90;99.90;;;;;;4977234;28;20048;-83
2023/11/24 03:11:42;;;;;;;17.63;1.30;;;6.90;99.90;;;;;;4989943;28;20349;-84
2023/11/24 03:14:08;;;;;;;10.65;1.33;;;6.90;99.90;;;;;;4975065;28;20030;-77
2023/11/24 03:16:36;;;;;;;13.70;1.30;;;6.90;99.90;;;;;;4995215;28;20393;-80
2023/11/24 03:19:03;;;;;;;15.88;1.55;;;6.90;99.90;;;;;;4979062;28;21494;-82
2023/11/24 03:21:30;;;;;;;12.57;1.20;;;6.90;99.90;;;;;;4993629;28;20408;-82
2023/11/24 03:23:57;;;;;;;9.10;0.73;;;6.90;99.90;;;;;;4992221;28;20048;-77
2023/11/24 03:26:23;;;;;;;10.95;0.90;;;7.00;99.90;;;;;;4990876;28;20042;-81
2023/11/24 03:28:49;;;;;;;9.50;0.85;;;7.00;99.90;;;;;;4972766;28;20045;-80
2023/11/24 03:31:16;;;;;;;9.82;0.80;;;7.10;99.90;;;;;;4972100;28;20033;-83
2023/11/24 03:33:42;;;;;;;6.90;0.70;;;7.10;99.90;;;;;;4958856;28;20030;-80
2023/11/24 03:36:10;;;;;;;6.13;1.10;;;7.20;99.90;;;;;;4994756;28;20033;-81
2023/11/24 03:38:37;;;;;;;6.25;0.68;;;7.20;99.90;;;;;;4967813;28;20034;-77
2023/11/24 03:41:03;;;;;;;8.38;0.82;;;7.20;99.90;;;;;;4992001;28;20041;-77
2023/11/24 03:43:29;;;;;;;5.82;0.70;;;7.10;99.90;;;;;;4960039;28;20049;-81
2023/11/24 03:45:56;;;;;;;6.10;0.65;;;7.10;99.90;;;;;;4991024;28;20053;-78
2023/11/24 03:48:22;;;;;;;10.30;0.70;;;7.10;99.90;;;;;;4991838;28;20034;-83
2023/11/24 03:50:49;;;;;;;10.95;1.00;;;7.10;99.90;;;;;;4992257;28;20042;-82
2023/11/24 03:53:15;;;;;;;9.05;0.82;;;7.10;99.90;;;;;;4993960;28;20034;-81
2023/11/24 03:55:42;;;;;;;9.13;0.80;;;7.10;99.90;;;;;;4994291;28;20038;-76
2023/11/24 03:58:09;;;;;;;9.05;1.02;;;7.10;99.90;;;;;;4990927;28;20037;-81
2023/11/24 04:00:36;;;;;;;9.13;1.10;;;7.10;99.90;;;;;;4974913;28;20042;-76
2023/11/24 04:03:02;;;;;;;4.13;0.50;;;7.00;99.90;;;;;;4990808;28;20063;-81
2023/11/24 04:05:29;;;;;;;6.05;0.88;;;7.00;99.90;;;;;;4972714;28;20048;-76
2023/11/24 04:07:55;;;;;;;7.70;0.50;;;6.90;99.90;;;;;;4976270;28;20046;-80
2023/11/24 04:10:22;;;;;;;9.80;0.60;;;6.80;99.90;;;;;;4993648;28;20033;-81
2023/11/24 04:12:48;;;;;;;8.90;1.42;;;6.80;99.90;;;;;;4990122;28;20041;-80
2023/11/24 04:15:15;;;;;;;5.20;0.60;;;6.70;99.90;;;;;;4950872;28;20038;-75
2023/11/24 04:17:41;;;;;;;9.02;0.55;;;6.70;99.90;;;;;;4993269;28;20469;-79
2023/11/24 04:20:09;;;;;;;7.35;0.50;;;6.70;99.90;;;;;;4974302;28;20046;-82
2023/11/24 04:22:36;;;;;;;7.60;0.77;;;6.70;99.90;;;;;;4992069;28;20030;-79
2023/11/24 04:25:04;;;;;;;11.10;0.70;;;6.70;99.90;;;;;;4976069;28;20688;-78
2023/11/24 04:27:32;;;;;;;7.10;0.70;;;6.70;99.90;;;;;;4993346;28;20038;-78
2023/11/24 04:29:59;;;;;;;10.25;0.82;;;6.70;99.90;;;;;;4993058;28;20037;-81
2023/11/24 04:32:25;;;;;;;11.07;0.85;;;6.70;99.90;;;;;;4991553;28;20034;-81
2023/11/24 04:34:51;;;;;;;8.38;1.02;;;6.70;99.90;;;;;;4992679;28;20034;-79
2023/11/24 04:37:19;;;;;;;7.30;1.08;;;6.70;99.90;;;;;;4991753;28;20029;-83
2023/11/24 04:39:46;;;;;;;12.25;0.98;;;6.60;99.90;;;;;;4990396;28;20038;-78
2023/11/24 04:42:12;;;;;;;6.68;0.80;;;6.60;99.90;;;;;;4990491;28;20752;-80
2023/11/24 04:44:39;;;;;;;10.10;1.08;;;6.50;99.90;;;;;;4969542;28;20038;-76
2023/11/24 04:47:05;;;;;;;7.35;1.50;;;6.50;99.90;;;;;;4965452;28;20050;-80
2023/11/24 04:49:31;;;;;;;7.97;0.77;;;6.50;99.90;;;;;;4990459;28;20037;-79
2023/11/24 04:51:59;;;;;;;8.68;0.60;;;6.60;99.90;;;;;;4972111;28;20046;-77
2023/11/24 04:54:25;;;;;;;7.97;0.73;;;6.60;99.90;;;;;;4991836;28;20045;-81
2023/11/24 04:56:53;;;;;;;12.15;0.93;;;6.60;99.90;;;;;;4981061;28;20030;-80
2023/11/24 04:59:21;;;;;;;10.13;0.63;;;6.60;99.90;;;;;;4982687;28;20060;-83
2023/11/24 05:01:48;;;;;;;7.97;0.70;;;6.60;99.90;;;;;;4985232;28;20527;-80
2023/11/24 05:04:14;;;;;;;10.40;0.75;;;6.70;99.90;;;;;;4975249;28;20040;-75
2023/11/24 05:06:41;;;;;;;10.30;0.85;;;6.70;99.90;;;;;;4976694;28;20065;-81
2023/11/24 05:09:07;;;;;;;9.77;0.80;;;6.70;99.90;;;;;;4993942;28;20044;-81
2023/11/24 05:11:34;;;;;;;11.68;0.90;;;6.70;99.90;;;;;;4990232;28;20847;-85
2023/11/24 05:14:00;;;;;;;9.13;0.63;;;6.60;99.90;;;;;;4983801;28;20038;-81
2023/11/24 05:16:26;;;;;;;7.65;0.85;;;6.50;99.90;;;;;;4990425;28;20041;-82
2023/11/24 05:18:53;;;;;;;8.82;1.00;;;6.50;99.90;;;;;;4974460;28;20405;-83
2023/11/24 05:21:19;;;;;;;7.72;1.10;;;6.50;99.90;;;;;;4991740;28;20045;-80
2023/11/24 05:23:45;;;;;;;9.25;1.08;;;6.50;99.90;;;;;;4991933;28;20030;-85
2023/11/24 05:26:12;;;;;;;5.88;0.57;;;6.60;99.90;;;;;;4991429;28;20042;-81
2023/11/24 05:28:39;;;;;;;8.10;1.23;;;6.60;99.90;;;;;;4989850;28;20041;-82
2023/11/24 05:31:06;;;;;;;8.60;0.70;;;6.60;99.90;;;;;;4957305;28;20544;-81
2023/11/24 05:33:33;;;;;;;9.82;1.00;;;6.60;99.90;;;;;;4975692;28;20443;-82
2023/11/24 05:35:59;;;;;;;9.45;1.30;;;6.70;99.90;;;;;;4994204;28;20052;-74
2023/11/24 05:38:25;;;;;;;9.18;0.70;;;6.70;99.90;;;;;;4995273;28;20084;-77
2023/11/24 05:40:52;;;;;;;10.10;0.75;;;6.70;99.90;;;;;;4996525;28;20033;-85
2023/11/24 05:43:18;;;;;;;6.15;0.85;;;6.70;99.90;;;;;;4978081;28;20033;-85
2023/11/24 05:45:47;;;;;;;10.70;0.88;;;6.70;99.90;;;;;;4990531;28;20033;-82
2023/11/24 05:48:13;;;;;;;7.65;0.98;;;6.60;99.90;;;;;;4974053;28;20039;-83
2023/11/24 05:50:39;;;;;;;8.30;0.60;;;6.60;99.90;;;;;;4991688;28;21171;-77
2023/11/24 05:53:06;;;;;;;11.55;0.90;;;6.60;99.90;;;;;;4991548;28;20037;-78
2023/11/24 05:55:32;;;;;;;6.93;1.08;;;6.50;99.90;;;;;;4993528;28;20033;-74
2023/11/24 05:57:58;;;;;;;14.07;1.30;;;6.50;99.90;;;;;;4984670;28;20046;-82
2023/11/24 06:00:25;;;;;;;9.88;0.77;;;6.40;99.90;;;;;;4987820;28;20057;-83
2023/11/24 06:02:51;;;;;;;9.00;1.17;;;6.40;99.90;;;;;;4958052;28;20038;-85
2023/11/24 06:05:18;;;;;;;4.38;0.50;;;6.40;99.90;;;;;;4974302;28;20053;-84
2023/11/24 06:07:45;;;;;;;6.95;0.50;;;6.30;99.90;;;;;;4993063;28;20041;-82
2023/11/24 06:10:12;;;;;;;9.15;1.67;;;6.30;99.90;;;;;;4976453;28;20508;-83
2023/11/24 06:12:38;;;;;;;5.45;0.85;;;6.30;99.90;;;;;;4991417;28;20045;-82
2023/11/24 06:15:05;;;;;;;9.82;0.70;;;6.30;99.90;;;;;;4993159;28;20033;-82
2023/11/24 06:17:32;;;;;;;5.78;0.77;;;6.20;99.90;;;;;;4990426;28;23044;-81
2023/11/24 06:19:58;;;;;;;8.57;0.70;;;6.20;99.90;;;;;;4968892;28;20037;-81
2023/11/24 06:22:24;;;;;;;12.77;1.02;;;6.20;99.90;;;;;;4984214;28;20921;-83
2023/11/24 06:24:52;;;;;;;7.65;0.63;;;6.20;99.90;;;;;;4988464;28;20041;-80
2023/11/24 06:27:18;;;;;;;11.95;1.63;;;6.20;99.90;;;;;;4975842;28;20042;-79
2023/11/24 06:29:44;;;;;;;8.25;0.80;;;6.10;99.90;;;;;;4977670;28;20037;-83
2023/11/24 06:32:11;;;;;;;8.20;0.70;;;6.20;99.90;;;;;;4968014;28;20584;-82
2023/11/24 06:34:38;;;;;;;8.65;0.88;;;6.10;99.90;;;;;;4978850;28;20037;-79
2023/11/24 06:37:04;;;;;;;8.93;1.02;;;6.20;99.90;;;;;;4958189;28;20476;-80
2023/11/24 06:39:31;;;;;;;11.20;0.70;;;6.20;99.90;;;;;;4990239;28;20046;-83
2023/11/24 06:41:59;;;;;;;9.75;0.75;;;6.10;99.90;;;;;;4963320;28;20545;-84
2023/11/24 06:44:26;;;;;;;7.20;0.60;;;6.10;99.90;;;;;;4995429;28;20425;-80
2023/11/24 06:46:52;;;;;;;8.98;1.98;;;6.00;99.90;;;;;;4995243;28;20050;-81
2023/11/24 06:49:19;;;;;;;8.70;0.68;;;6.00;99.90;;;;;;4995766;28;20031;-82
2023/11/24 06:51:48;;;;;;;7.50;0.80;;;6.00;99.90;;;;;;4999977;28;20033;-82
2023/11/24 06:54:15;;;;;;;5.95;0.80;;;6.00;99.90;;;;;;5001049;28;20038;-80
2023/11/24 06:56:41;;;;;;;8.60;0.70;;;6.10;99.90;;;;;;4998894;28;20030;-84
2023/11/24 06:59:08;;;;;;;5.95;0.65;;;6.10;99.90;;;;;;4977550;28;20048;-74
2023/11/24 07:01:35;;;;;;;11.57;1.02;;;6.10;99.90;;;;;;4980445;28;20373;-81
2023/11/24 07:04:02;;;;;;;11.88;1.15;;;6.10;99.90;;;;;;4995454;28;20552;-84
2023/11/24 07:06:29;;;;;;;8.35;0.70;;;6.00;99.90;;;;;;4997540;28;20042;-85
2023/11/24 07:08:56;;;;;;;5.18;0.80;;;5.90;99.90;;;;;;4978702;28;20456;-82
2023/11/24 07:11:22;;;;;;;10.30;0.90;;;5.90;99.90;;;;;;4994968;28;20025;-86
2023/11/24 07:13:49;;;;;;;9.90;0.80;;;5.90;99.90;;;;;;4978570;28;20400;-82
2023/11/24 07:16:16;;;;;;;11.88;1.25;;;5.90;99.90;;;;;;4994940;28;20033;-76
2023/11/24 07:18:43;;;;;;;8.43;0.63;;;5.90;99.90;;;;;;4977171;28;20837;-83
2023/11/24 07:21:10;;;;;;;5.68;0.55;;;5.90;99.90;;;;;;4980677;28;20492;-79
2023/11/24 07:23:37;;;;;;;6.82;0.70;;;6.00;99.90;;;;;;4995219;28;20393;-81
2023/11/24 07:26:05;;;;;;;8.38;0.73;;;6.00;99.90;;;;;;4996940;28;20476;-81
2023/11/24 07:28:31;;;;;;;13.15;0.95;;;6.00;99.90;;;;;;4980973;28;20034;-80
2023/11/24 07:30:57;;;;;;;10.73;1.10;;;6.10;99.90;;;;;;4969951;28;20041;-82
2023/11/24 07:33:24;;;;;;;9.65;0.90;;;6.10;99.90;;;;;;4977838;28;20033;-76
2023/11/24 07:35:50;;;;;;;6.97;0.50;;;6.00;99.90;;;;;;4993987;28;20501;-79
2023/11/24 07:38:17;;;;;;;4.32;0.50;;;6.00;99.90;;;;;;4997866;28;20041;-81
2023/11/24 07:40:43;;;;;;;6.63;0.40;;;5.90;99.90;;;;;;4996282;28;20493;-79
2023/11/24 07:43:09;;;;;;;5.00;0.52;;;5.80;99.90;;;;;;4977636;28;20033;-81
2023/11/24 07:45:36;;;;;;;7.35;0.63;;;5.70;99.90;;;;;;4962300;28;20485;-81
2023/11/24 07:48:02;;;;;;;5.75;0.70;;;5.70;99.90;;;;;;4993625;28;20053;-80
2023/11/24 07:50:28;;;;;;;5.70;0.50;;;5.70;99.90;;;;;;4992553;28;20500;-81
2023/11/24 07:52:55;;;;;;;7.43;0.80;;;5.70;99.90;;;;;;4994172;28;20045;-75
2023/11/24 07:55:22;;;;;;;7.80;0.75;;;5.80;99.90;;;;;;4969521;28;20038;-81
2023/11/24 07:57:48;;;;;;;8.18;0.80;;;5.80;99.90;;;;;;4977645;28;20040;-79
2023/11/24 08:00:17;;;;;;;7.88;0.60;;;5.80;99.90;;;;;;4977184;28;20034;-81
2023/11/24 08:02:43;;;;;;;4.65;0.70;;;5.80;99.90;;;;;;4994822;28;20060;-76
2023/11/24 08:05:09;;;;;;;10.30;0.90;;;5.70;99.90;;;;;;4991472;28;20516;-77
2023/11/24 08:07:37;;;;;;;8.43;1.55;;;5.70;99.90;;;;;;4977996;28;20053;-77
2023/11/24 08:10:04;;;;;;;11.38;1.25;;;5.70;99.90;;;;;;4991546;28;20402;-80
2023/11/24 08:12:31;;;;;;;13.88;1.27;;;5.70;99.90;;;;;;4966305;28;20420;-77
2023/11/24 08:15:00;;;;;;;12.68;1.42;;;5.70;99.90;;;;;;4993310;28;20173;-75
2023/11/24 08:17:26;;;;;;;8.73;0.93;;;5.80;99.90;;;;;;4993302;28;20039;-90
2023/11/24 08:19:53;;;;;;;7.72;0.70;;;5.80;99.90;;;;;;4990631;28;20492;-79
2023/11/24 08:22:19;;;;;;;5.63;0.80;;;5.90;99.90;;;;;;4973060;28;20057;-77
2023/11/24 08:24:45;;;;;;;7.90;0.75;;;5.90;99.90;;;;;;4991889;28;20853;-78
2023/11/24 08:27:12;;;;;;;6.68;0.70;;;5.90;99.90;;;;;;4963922;28;20428;-81
2023/11/24 08:29:38;;;;;;;6.50;0.90;;;5.90;99.90;;;;;;4990103;28;20038;-76
2023/11/24 08:32:06;;;;;;;6.55;0.85;;;6.00;99.90;;;;;;4993132;28;20034;-80
2023/11/24 08:34:32;;;;;;;8.70;0.80;;;6.00;99.90;;;;;;4992360;28;20033;-79
2023/11/24 08:37:01;;;;;;;9.00;0.75;;;6.10;99.90;;;;;;4974560;28;20616;-83
2023/11/24 08:39:28;;;;;;;5.55;0.57;;;6.10;99.90;;;;;;4990388;28;20037;-77
2023/11/24 08:41:54;;;;;;;6.20;0.60;;;6.10;99.90;;;;;;4985971;28;20038;-80
2023/11/24 08:44:24;;;;;;;7.22;0.95;;;6.10;99.90;;;;;;4990436;28;20038;-76
2023/11/24 08:46:52;;;;;;;5.75;0.63;;;6.10;99.90;;;;;;4973544;28;20046;-75
2023/11/24 08:49:18;;;;;;;7.63;0.68;;;6.10;99.90;;;;;;4992641;28;20507;-81
2023/11/24 08:51:45;;;;;;;6.60;0.50;;;6.10;99.90;;;;;;4991697;28;20277;-80
2023/11/24 08:54:11;;;;;;;9.20;1.13;;;6.00;99.90;;;;;;4994866;28;20022;-78
2023/11/24 08:56:38;;;;;;;4.57;0.40;;;6.00;99.90;;;;;;4994493;28;20037;-76
2023/11/24 08:59:08;;;;;;;5.47;0.60;;;6.10;99.90;;;;;;4976389;28;20508;-73
2023/11/24 09:01:34;;;;;;;6.07;0.57;;;6.10;99.90;;;;;;4959812;28;20038;-77
2023/11/24 09:04:01;;;;;;;10.20;0.90;;;6.10;99.90;;;;;;4983521;28;20038;-76
2023/11/24 09:06:27;;;;;;;3.75;0.50;;;6.10;99.90;;;;;;4990935;28;21097;-75
2023/11/24 09:08:56;;;;;;;5.47;0.50;;;6.10;99.90;;;;;;4975198;28;20049;-77
2023/11/24 09:11:22;;;;;;;6.57;0.50;;;6.10;99.90;;;;;;4975818;28;20045;-76
2023/11/24 09:13:49;;;;;;;6.28;0.70;;;6.10;99.90;;;;;;4993136;28;20049;-78
2023/11/24 09:16:17;;;;;;;5.25;0.60;;;6.00;99.90;;;;;;4990793;28;20105;-78
2023/11/24 09:18:43;;;;;;;4.85;0.40;;;6.00;99.90;;;;;;4992148;28;20609;-76
2023/11/24 09:21:10;;;;;;;3.17;0.50;;;6.00;99.90;;;;;;4994915;28;20041;-81
2023/11/24 09:23:37;;;;;;;4.28;0.30;;;6.10;99.90;;;;;;4992792;28;20034;-76
2023/11/24 09:26:07;;;;;;;3.58;0.40;;;6.10;99.90;;;;;;4975946;28;20503;-83
2023/11/24 09:28:33;;;;;;;6.93;1.15;;;6.10;99.90;;;;;;4994026;28;20041;-83
2023/11/24 09:31:04;;;;;;;4.20;0.40;;;6.20;99.90;;;;;;4989297;28;20037;-80
2023/11/24 09:33:31;;;;;;;3.92;0.50;;;6.20;99.90;;;;;;4990715;28;20030;-84
2023/11/24 09:35:57;;;;;;;6.30;0.40;;;6.20;99.90;;;;;;4973165;28;20068;-77
2023/11/24 09:38:24;;;;;;;2.50;0.40;;;6.20;99.90;;;;;;4976158;28;20038;-80
2023/11/24 09:40:52;;;;;;;8.20;0.43;;;6.20;99.90;;;;;;4976489;28;20997;-81
2023/11/24 09:43:19;;;;;;;2.83;0.70;;;6.20;99.90;;;;;;4992284;28;20037;-76
2023/11/24 09:45:46;;;;;;;4.88;0.52;;;6.50;99.90;;;;;;4968094;28;20038;-82
2023/11/24 09:48:14;;;;;;;6.05;0.40;;;6.80;99.90;;;;;;4975985;28;20424;-82
2023/11/24 09:50:42;;;;;;;4.85;0.40;;;6.90;99.90;;;;;;4976582;28;20057;-80
2023/11/24 09:53:12;;;;;;;9.00;0.73;;;6.90;99.90;;;;;;4975508;28;20030;-75
2023/11/24 09:55:41;;;;;;;3.88;0.50;;;6.80;99.90;;;;;;4986584;28;20034;-80
2023/11/24 09:58:08;;;;;;;5.60;0.50;;;6.70;99.90;;;;;;5002083;28;20476;-80
2023/11/24 10:00:34;;;;;;;4.07;0.73;;;6.60;99.90;;;;;;4992473;28;21779;-82
2023/11/24 10:03:04;;;;;;;6.93;0.70;;;6.50;99.90;;;;;;4991081;28;20895;-82
2023/11/24 10:05:30;;;;;;;8.65;0.52;;;6.50;99.90;;;;;;4995328;28;20042;-83
2023/11/24 10:07:57;;;;;;;7.75;0.60;;;6.60;99.90;;;;;;4993176;28;20049;-85
2023/11/24 10:10:28;;;;;;;7.78;0.80;;;7.00;99.90;;;;;;4995163;28;20022;-81
2023/11/24 10:12:59;;;;;;;5.32;0.55;;;7.30;99.90;;;;;;4991609;28;20041;-80
2023/11/24 10:15:26;;;;;;;7.28;0.93;;;7.30;99.90;;;;;;4995679;28;20029;-81
2023/11/24 10:17:52;;;;;;;7.25;0.68;;;7.20;99.90;;;;;;4994975;28;20053;-79
2023/11/24 10:20:21;;;;;;;9.75;1.50;;;7.00;99.90;;;;;;4975234;28;20064;-84
2023/11/24 10:22:49;;;;;;;5.47;0.70;;;6.90;99.90;;;;;;5009080;28;20401;-83
2023/11/24 10:25:19;;;;;;;4.75;0.60;;;6.80;99.90;;;;;;4980362;28;20744;-78
2023/11/24 10:27:47;;;;;;;6.97;0.90;;;6.70;99.90;;;;;;4957223;28;20034;-82
2023/11/24 10:30:14;;;;;;;7.43;0.80;;;6.60;99.90;;;;;;4978941;28;20575;-80
2023/11/24 10:32:43;;;;;;;5.88;0.80;;;6.50;99.90;;;;;;4962612;28;20041;-81
2023/11/24 10:35:12;;;;;;;8.02;1.33;;;6.50;99.90;;;;;;4995450;28;20052;-82
2023/11/24 10:37:40;;;;;;;14.95;1.42;;;6.40;99.90;;;;;;4981807;28;20033;-81
2023/11/24 10:40:11;;;;;;;9.20;0.68;;;6.40;99.90;;;;;;4991694;28;20393;-81
2023/11/24 10:42:47;;;;;;;5.30;0.60;;;6.40;99.90;;;;;;4986377;28;20033;-83
2023/11/24 10:45:19;;;;;;;7.95;1.20;;;6.40;99.90;;;;;;4973399;28;20484;-80
2023/11/24 10:48:10;;;;;;;9.55;0.70;;;6.60;99.90;;;;;;4984210;28;20522;-83
2023/11/24 10:50:41;;;;;;;9.48;0.85;;;6.70;99.90;;;;;;4996072;28;20069;-78
2023/11/24 10:53:21;;;;;;;10.27;0.60;;;6.80;99.90;;;;;;4996113;28;20621;-78
2023/11/24 10:55:48;;;;;;;5.43;0.60;;;6.90;99.90;;;;;;4953310;28;20037;-81
2023/11/24 10:58:15;;;;;;;10.77;1.58;;;7.00;99.90;;;;;;4993869;28;20046;-78
2023/11/24 11:00:42;;;;;;;7.03;0.70;;;7.00;99.90;;;;;;4976813;28;20645;-77
2023/11/24 11:03:12;;;;;;;9.57;1.00;;;7.10;99.90;;;;;;4978671;28;20037;-81
2023/11/24 11:05:58;;;;;;;8.55;1.13;;;7.10;99.90;;;;;;4995784;28;20049;-81
2023/11/24 11:08:35;;;;;;;6.40;0.75;;;7.10;99.90;;;;;;4975988;28;20451;-82
2023/11/24 11:11:15;;;;;;;10.98;1.02;;;7.00;99.90;;;;;;4978019;28;20041;-79
2023/11/24 11:13:43;;;;;;;10.50;1.05;;;7.00;99.90;;;;;;4970845;28;20022;-79
2023/11/24 11:16:12;;;;;;;6.03;0.82;;;7.00;99.90;;;;;;4993209;28;20037;-80
2023/11/24 11:18:39;;;;;;;3.95;0.73;;;7.00;99.90;;;;;;4995354;28;20048;-79
2023/11/24 11:21:13;;;;;;;13.30;2.30;;;6.90;99.90;;;;;;4985552;28;20033;-80
2023/11/24 11:23:41;;;;;;;12.75;1.20;;;6.90;99.90;;;;;;4992764;28;20041;-80
2023/11/24 11:26:08;;;;;;;8.80;0.95;;;6.80;99.90;;;;;;4993510;28;20033;-81
2023/11/24 11:28:36;;;;;;;15.82;2.17;;;6.70;99.90;;;;;;4994122;28;20034;-83
2023/11/24 11:31:20;;;;;;;12.20;1.58;;;6.60;99.90;;;;;;4977380;28;20033;-78
2023/11/24 11:33:47;;;;;;;11.35;1.67;;;6.60;99.90;;;;;;4991424;28;20057;-80
2023/11/24 11:36:15;;;;;;;7.57;0.88;;;6.70;99.90;;;;;;4993453;28;20621;-78
2023/11/24 11:38:46;;;;;;;20.05;1.85;;;6.80;99.90;;;;;;4992229;28;20030;-81
2023/11/24 11:41:36;;;;;;;20.35;1.30;;;7.00;99.90;;;;;;4994722;28;20029;-80
2023/11/24 11:44:33;;;;;;;12.32;1.42;;;7.10;99.90;;;;;;4993386;28;20476;-81
2023/11/24 11:47:18;;;;;;;18.40;1.98;;;7.00;99.90;;;;;;4960766;28;20413;-81
2023/11/24 11:49:51;;;;;;;9.88;1.23;;;6.90;99.90;;;;;;5005738;28;20041;-80
2023/11/24 11:52:23;;;;;;;12.45;1.27;;;6.80;99.90;;;;;;5005056;28;20042;-79
2023/11/24 11:54:51;;;;;;;13.40;1.40;;;6.70;99.90;;;;;;4958341;28;20034;-76
2023/11/24 11:57:21;;;;;;;11.95;1.05;;;6.70;99.90;;;;;;4976818;28;20038;-81
2023/11/24 11:59:51;;;;;;;18.88;1.95;;;6.90;99.90;;;;;;4971309;28;20046;-83
2023/11/24 12:02:21;;;;;;;10.75;1.00;;;7.10;99.90;;;;;;4994782;28;20424;-78
2023/11/24 12:04:48;;;;;;;16.70;1.73;;;7.10;99.90;;;;;;4977317;28;20520;-80
2023/11/24 12:07:15;;;;;;;17.88;1.98;;;7.10;99.90;;;;;;4992679;28;20056;-76
2023/11/24 12:09:41;;;;;;;22.52;2.00;;;7.00;99.90;;;;;;4993205;28;20041;-82
2023/11/24 12:12:12;;;;;;;13.65;2.05;;;6.90;99.90;;;;;;4994623;28;20033;-81
2023/11/24 12:14:41;;;;;;;16.33;1.73;;;6.80;99.90;;;;;;4992831;28;20048;-78
2023/11/24 12:17:09;;;;;;;11.57;1.40;;;6.80;99.90;;;;;;4974225;28;20078;-76
2023/11/24 12:19:37;;;;;;;13.70;1.75;;;6.90;99.90;;;;;;4990396;28;20030;-80
2023/11/24 12:22:05;;;;;;;14.52;2.33;;;7.00;99.90;;;;;;4989922;28;20140;-80
2023/11/24 12:24:33;;;;;;;17.13;2.03;;;7.00;99.90;;;;;;4991916;28;20038;-79
2023/11/24 12:27:01;;;;;;;12.88;1.52;;;7.10;99.90;;;;;;4973919;28;20030;-75
2023/11/24 12:29:28;;;;;;;19.13;2.17;;;7.20;99.90;;;;;;4973972;28;20040;-80
2023/11/24 12:31:55;;;;;;;15.57;1.65;;;7.30;99.90;;;;;;4957693;28;20029;-80
2023/11/24 12:34:23;;;;;;;12.80;2.03;;;7.40;99.90;;;;;;4992720;28;20038;-76
2023/11/24 12:36:55;;;;;;;16.17;1.70;;;7.40;99.90;;;;;;4974589;28;20053;-81
2023/11/24 12:39:30;;;;;;;19.75;2.10;;;7.50;99.90;;;;;;4987417;28;20029;-78
2023/11/24 12:41:57;;;;;;;12.40;1.90;;;7.50;99.90;;;;;;4999099;28;20045;-79
2023/11/24 12:44:26;;;;;;;14.95;1.73;;;7.50;99.90;;;;;;4995431;28;20033;-78
2023/11/24 12:47:12;;;;;;;16.00;2.78;;;7.50;99.90;;;;;;4994111;28;20038;-79
2023/11/24 12:50:00;;;;;;;13.00;1.88;;;7.60;99.90;;;;;;4960293;28;20042;-81
2023/11/24 12:52:32;;;;;;;10.82;1.40;;;7.60;99.90;;;;;;4993337;28;20033;-82
2023/11/24 12:54:59;;;;;;;10.70;1.40;;;7.40;99.90;;;;;;4976023;28;20037;-81